createdAt,value
2022-10-18T00:02:16.102Z,40.70
2022-10-18T00:04:38.619Z,35.35
2022-10-18T00:07:01.054Z,36.22
2022-10-18T00:09:23.665Z,32.67
2022-10-18T00:11:46.028Z,39.70
2022-10-18T00:14:08.543Z,39.10
2022-10-18T00:16:30.919Z,43.00
2022-10-18T00:18:53.340Z,38.40
2022-10-18T00:21:18.597Z,39.30
2022-10-18T00:23:41.102Z,34.70
2022-10-18T00:26:14.938Z,38.50
2022-10-18T00:28:38.857Z,38.72
2022-10-18T00:31:17.177Z,35.08
2022-10-18T00:33:39.878Z,32.67
2022-10-18T00:36:02.234Z,39.60
2022-10-18T00:38:24.605Z,38.70
2022-10-18T00:40:46.982Z,36.23
2022-10-18T00:43:14.975Z,35.23
2022-10-18T00:45:37.337Z,34.88
2022-10-18T00:48:02.651Z,34.57
2022-10-18T00:50:25.533Z,34.95
2022-10-18T00:52:58.426Z,31.55
2022-10-18T00:55:20.931Z,34.53
2022-10-18T00:57:43.418Z,36.92
2022-10-18T01:00:09.902Z,37.13
2022-10-18T01:02:32.826Z,36.70
2022-10-18T01:04:55.422Z,39.03
2022-10-18T01:07:35.174Z,35.03
2022-10-18T01:10:22.491Z,36.03
2022-10-18T01:12:47.436Z,38.25
2022-10-18T01:15:21.591Z,36.13
2022-10-18T01:18:01.751Z,36.75
2022-10-18T01:20:59.096Z,37.67
2022-10-18T01:23:49.925Z,33.10
2022-10-18T01:26:37.823Z,37.85
2022-10-18T01:29:53.504Z,37.60
2022-10-18T01:32:44.630Z,35.42
2022-10-18T01:35:11.843Z,30.73
2022-10-18T01:37:34.497Z,39.20
2022-10-18T01:39:57.423Z,33.40
2022-10-18T01:42:19.953Z,34.00
2022-10-18T01:44:42.431Z,37.58
2022-10-18T01:47:04.773Z,38.03
2022-10-18T01:49:27.262Z,35.83
2022-10-18T01:51:49.593Z,35.92
2022-10-18T01:54:13.217Z,36.50
2022-10-18T01:57:02.106Z,36.55
2022-10-18T01:59:38.748Z,37.55
2022-10-18T02:02:30.247Z,40.25
2022-10-18T02:05:10.909Z,35.95
2022-10-18T02:07:40.086Z,33.83
2022-10-18T02:10:32.870Z,36.25
2022-10-18T02:12:55.339Z,33.83
2022-10-18T02:15:21.212Z,35.25
2022-10-18T02:17:43.610Z,35.65
2022-10-18T02:20:06.947Z,41.17
2022-10-18T02:22:31.832Z,34.72
2022-10-18T02:24:56.228Z,37.78
2022-10-18T02:27:18.682Z,35.13
2022-10-18T02:29:41.632Z,34.97
2022-10-18T02:32:29.186Z,33.28
2022-10-18T02:35:19.189Z,39.42
2022-10-18T02:37:41.528Z,39.05
2022-10-18T02:40:05.859Z,34.83
2022-10-18T02:42:54.631Z,35.97
2022-10-18T02:45:17.127Z,34.53
2022-10-18T02:47:39.541Z,36.28
2022-10-18T02:50:01.955Z,37.87
2022-10-18T02:52:24.330Z,37.03
2022-10-18T02:54:46.682Z,39.50
2022-10-18T02:57:09.111Z,42.10
2022-10-18T02:59:31.506Z,39.87
2022-10-18T03:01:53.955Z,35.60
2022-10-18T03:04:16.433Z,43.23
2022-10-18T03:06:38.848Z,39.50
2022-10-18T03:09:03.874Z,33.00
2022-10-18T03:11:26.230Z,37.83
2022-10-18T03:13:50.352Z,36.27
2022-10-18T03:16:13.054Z,33.65
2022-10-18T03:18:35.471Z,34.67
2022-10-18T03:20:57.814Z,36.40
2022-10-18T03:23:20.148Z,32.83
2022-10-18T03:25:45.633Z,34.97
2022-10-18T03:28:08.881Z,32.63
2022-10-18T03:30:31.301Z,36.97
2022-10-18T03:32:54.372Z,33.53
2022-10-18T03:35:16.924Z,37.58
2022-10-18T03:37:39.262Z,31.05
2022-10-18T03:40:01.812Z,34.97
2022-10-18T03:42:24.214Z,34.80
2022-10-18T03:44:46.577Z,45.23
2022-10-18T03:47:08.917Z,38.03
2022-10-18T03:49:31.275Z,35.00
2022-10-18T03:51:53.646Z,34.00
2022-10-18T03:54:16.007Z,33.63
2022-10-18T03:56:38.370Z,32.07
2022-10-18T03:59:00.729Z,36.27
2022-10-18T04:01:23.319Z,40.00
2022-10-18T04:03:45.717Z,36.92
2022-10-18T04:06:10.010Z,42.30
2022-10-18T04:08:32.371Z,37.95
2022-10-18T04:10:54.724Z,36.00
2022-10-18T04:13:17.071Z,38.15
2022-10-18T04:15:39.444Z,36.43
2022-10-18T04:18:01.851Z,33.37
2022-10-18T04:20:25.055Z,33.97
2022-10-18T04:22:50.494Z,34.45
2022-10-18T04:25:12.858Z,41.65
2022-10-18T04:27:36.046Z,35.97
2022-10-18T04:29:58.442Z,30.98
2022-10-18T04:32:20.786Z,36.77
2022-10-18T04:36:50.140Z,33.63
2022-10-18T04:38:52.310Z,37.35
2022-10-18T04:40:54.439Z,34.70
2022-10-18T04:42:57.210Z,32.95
2022-10-18T04:47:01.377Z,37.50
2022-10-18T04:49:03.506Z,44.40
2022-10-18T04:51:05.915Z,35.10
2022-10-18T04:53:08.015Z,39.50
2022-10-18T04:55:10.224Z,37.95
2022-10-18T04:57:12.354Z,32.63
2022-10-18T04:59:14.493Z,35.78
2022-10-18T05:01:17.336Z,37.83
2022-10-18T05:03:19.556Z,41.88
2022-10-18T05:05:21.634Z,38.85
2022-10-18T05:07:23.813Z,41.17
2022-10-18T05:09:25.932Z,38.45
2022-10-18T05:11:28.020Z,39.90
2022-10-18T05:13:30.613Z,37.85
2022-10-18T05:15:32.728Z,37.08
2022-10-18T05:17:34.827Z,40.53
2022-10-18T05:19:36.918Z,39.92
2022-10-18T05:21:39.025Z,38.60
2022-10-18T05:23:41.130Z,31.60
2022-10-18T05:25:43.785Z,37.42
2022-10-18T05:27:45.874Z,33.25
2022-10-18T05:29:48.307Z,36.00
2022-10-18T05:31:50.827Z,36.92
2022-10-18T05:33:53.012Z,37.88
2022-10-18T05:35:55.149Z,41.80
2022-10-18T05:37:57.297Z,35.38
2022-10-18T05:39:59.432Z,37.70
2022-10-18T05:42:02.468Z,36.58
2022-10-18T05:44:05.490Z,34.28
2022-10-18T05:46:12.092Z,37.28
2022-10-18T05:48:17.402Z,41.42
2022-10-18T05:50:19.552Z,40.13
2022-10-18T05:52:21.790Z,38.30
2022-10-18T05:54:23.962Z,38.05
2022-10-18T05:56:26.152Z,38.53
2022-10-18T05:58:28.350Z,34.83
2022-10-18T06:00:30.528Z,37.50
2022-10-18T06:02:32.672Z,35.67
2022-10-18T06:04:35.222Z,36.38
2022-10-18T06:06:37.928Z,39.03
2022-10-18T06:10:42.344Z,41.17
2022-10-18T06:12:44.557Z,46.28
2022-10-18T06:14:47.471Z,40.95
2022-10-18T06:16:50.618Z,39.78
2022-10-18T06:18:54.982Z,42.08
2022-10-18T06:20:59.051Z,38.17
2022-10-18T06:23:01.228Z,36.85
2022-10-18T06:25:03.436Z,38.10
2022-10-18T06:27:09.597Z,33.65
2022-10-18T06:29:11.946Z,34.20
2022-10-18T06:31:14.439Z,34.38
2022-10-18T06:33:37.234Z,39.97
2022-10-18T06:35:39.375Z,37.45
2022-10-18T06:39:48.545Z,35.63
2022-10-18T06:41:50.698Z,33.78
2022-10-18T06:43:55.117Z,38.35
2022-10-18T06:45:57.346Z,38.92
2022-10-18T06:47:59.618Z,39.42
2022-10-18T06:50:01.742Z,38.63
2022-10-18T06:52:04.037Z,40.20
2022-10-18T06:54:17.612Z,35.38
2022-10-18T06:56:20.474Z,34.97
2022-10-18T06:58:22.570Z,44.42
2022-10-18T07:00:24.696Z,39.50
2022-10-18T07:02:26.950Z,30.45
2022-10-18T07:04:30.467Z,35.92
2022-10-18T07:06:32.599Z,30.40
2022-10-18T07:08:35.203Z,34.10
2022-10-18T07:10:37.412Z,30.15
2022-10-18T07:12:39.587Z,38.33
2022-10-18T07:14:41.705Z,38.78
2022-10-18T07:16:43.872Z,35.83
2022-10-18T07:18:50.646Z,35.90
2022-10-18T07:20:52.767Z,34.20
2022-10-18T07:22:57.168Z,37.88
2022-10-18T07:24:59.282Z,37.85
2022-10-18T07:27:01.378Z,33.78
2022-10-18T07:29:09.608Z,34.88
2022-10-18T07:31:12.404Z,35.78
2022-10-18T07:35:16.679Z,30.58
2022-10-18T07:37:18.841Z,31.73
2022-10-18T07:39:21.090Z,31.88
2022-10-18T07:41:23.347Z,34.38
2022-10-18T07:43:25.576Z,32.15
2022-10-18T07:45:27.716Z,37.40
2022-10-18T07:47:31.383Z,37.63
2022-10-18T07:49:36.512Z,36.58
2022-10-18T07:51:38.653Z,32.70
2022-10-18T07:53:40.851Z,31.05
2022-10-18T07:55:43.359Z,35.15
2022-10-18T07:57:45.503Z,33.42
2022-10-18T07:59:48.354Z,32.15
2022-10-18T08:01:50.479Z,33.70
2022-10-18T08:03:53.119Z,38.33
2022-10-18T08:05:55.451Z,33.58
2022-10-18T08:07:57.602Z,34.58
2022-10-18T08:09:59.740Z,36.05
2022-10-18T08:12:01.897Z,40.05
2022-10-18T08:14:03.989Z,35.45
2022-10-18T08:16:08.951Z,39.45
2022-10-18T08:18:11.252Z,34.30
2022-10-18T08:20:30.029Z,34.20
2022-10-18T08:22:32.825Z,33.60
2022-10-18T08:24:34.940Z,34.10
2022-10-18T08:26:37.056Z,33.53
2022-10-18T08:28:39.544Z,33.25
2022-10-18T08:30:41.713Z,28.83
2022-10-18T08:32:43.877Z,38.58
2022-10-18T08:34:45.979Z,35.28
2022-10-18T08:36:48.097Z,34.60
2022-10-18T08:38:50.344Z,33.88
2022-10-18T08:40:52.536Z,39.30
2022-10-18T08:45:43.194Z,36.65
2022-10-18T08:47:49.133Z,33.30
2022-10-18T08:49:54.699Z,37.20
2022-10-18T08:51:57.251Z,34.75
2022-10-18T08:54:22.908Z,31.45
2022-10-18T08:56:25.136Z,31.67
2022-10-18T08:58:31.709Z,38.40
2022-10-18T09:00:34.930Z,36.33
2022-10-18T09:03:26.506Z,30.95
2022-10-18T09:05:41.927Z,34.00
2022-10-18T09:07:47.723Z,34.67
2022-10-18T09:10:10.177Z,35.10
2022-10-18T09:12:50.958Z,29.85
2022-10-18T09:15:14.201Z,31.75
2022-10-18T09:19:55.147Z,29.88
2022-10-18T09:22:12.964Z,27.20
2022-10-18T09:24:22.413Z,30.33
2022-10-18T09:26:24.962Z,27.23
2022-10-18T09:28:45.379Z,26.15
2022-10-18T09:31:02.034Z,25.48
2022-10-18T09:33:21.519Z,32.22
2022-10-18T09:35:27.553Z,25.75
2022-10-18T09:37:30.743Z,27.60
2022-10-18T09:39:35.598Z,32.83
2022-10-18T09:42:04.588Z,29.98
2022-10-18T09:44:20.028Z,30.42
2022-10-18T09:46:23.667Z,35.08
2022-10-18T09:48:51.204Z,35.28
2022-10-18T09:51:25.616Z,33.15
2022-10-18T09:53:50.367Z,33.38
2022-10-18T09:55:57.007Z,29.48
2022-10-18T09:58:00.969Z,32.60
2022-10-18T10:00:05.139Z,27.20
2022-10-18T10:02:09.443Z,29.83
2022-10-18T10:04:11.684Z,26.58
2022-10-18T10:06:16.539Z,31.60
2022-10-18T10:08:18.715Z,30.15
2022-10-18T10:10:25.577Z,33.20
2022-10-18T10:12:38.640Z,29.58
2022-10-18T10:16:58.539Z,24.02
2022-10-18T10:19:00.680Z,26.45
2022-10-18T10:21:05.942Z,29.65
2022-10-18T10:23:26.188Z,31.67
2022-10-18T10:25:40.976Z,28.52
2022-10-18T10:27:46.235Z,29.38
2022-10-18T10:29:48.253Z,33.13
2022-10-18T10:32:03.256Z,29.90
2022-10-18T10:34:15.138Z,33.22
2022-10-18T10:36:21.945Z,28.27
2022-10-18T10:38:29.040Z,26.08
2022-10-18T10:40:32.291Z,28.95
2022-10-18T10:42:38.017Z,27.67
2022-10-18T10:44:40.148Z,33.10
2022-10-18T10:46:42.251Z,26.27
2022-10-18T10:48:50.358Z,22.60
2022-10-18T10:51:09.836Z,23.58
2022-10-18T10:53:56.338Z,21.30
2022-10-18T10:55:58.476Z,26.10
2022-10-18T10:58:00.707Z,24.92
2022-10-18T11:00:02.964Z,22.85
2022-10-18T11:02:20.753Z,27.73
2022-10-18T11:04:30.251Z,24.65
2022-10-18T11:07:06.416Z,22.35
2022-10-18T11:09:42.241Z,25.40
2022-10-18T11:11:49.938Z,31.02
2022-10-18T11:14:25.320Z,25.58
2022-10-18T11:16:58.789Z,25.75
2022-10-18T11:19:01.464Z,25.92
2022-10-18T11:23:31.847Z,30.20
2022-10-18T11:26:18.393Z,27.33
2022-10-18T11:29:15.219Z,23.50
2022-10-18T11:31:58.413Z,26.33
2022-10-18T11:34:47.117Z,23.13
2022-10-18T11:37:30.114Z,22.35
2022-10-18T11:39:43.664Z,25.45
2022-10-18T11:41:58.613Z,22.88
2022-10-18T11:44:04.231Z,29.73
2022-10-18T11:46:41.449Z,22.48
2022-10-18T11:48:49.275Z,24.75
2022-10-18T11:51:34.271Z,26.30
2022-10-18T11:54:22.658Z,21.63
2022-10-18T11:58:59.385Z,23.75
2022-10-18T12:01:24.712Z,21.88
2022-10-18T12:03:51.286Z,22.25
2022-10-18T12:05:54.375Z,20.17
2022-10-18T12:08:29.496Z,20.95
2022-10-18T12:10:44.406Z,19.10
2022-10-18T12:13:02.126Z,20.08
2022-10-18T12:15:13.947Z,22.48
2022-10-18T12:17:50.088Z,19.92
2022-10-18T12:19:52.450Z,26.13
2022-10-18T12:22:10.811Z,27.20
2022-10-18T12:24:25.318Z,20.73
2022-10-18T12:26:28.409Z,20.55
2022-10-18T12:29:15.235Z,24.58
2022-10-18T12:31:36.983Z,23.92
2022-10-18T12:33:40.855Z,22.63
2022-10-18T12:35:59.282Z,21.90
2022-10-18T12:38:24.668Z,23.50
2022-10-18T12:40:39.067Z,27.38
2022-10-18T12:42:46.538Z,21.10
2022-10-18T12:44:48.801Z,22.15
2022-10-18T12:47:01.184Z,21.67
2022-10-18T12:49:04.868Z,19.35
2022-10-18T12:51:15.392Z,19.23
2022-10-18T12:53:20.374Z,18.55
2022-10-18T12:55:25.060Z,18.75
2022-10-18T12:57:27.199Z,23.90
2022-10-18T12:59:29.203Z,18.55
2022-10-18T13:01:51.370Z,21.75
2022-10-18T13:03:56.960Z,19.63
2022-10-18T13:06:04.163Z,24.52
2022-10-18T13:08:38.192Z,22.20
2022-10-18T13:10:40.944Z,21.30
2022-10-18T13:15:40.819Z,25.63
2022-10-18T13:18:04.867Z,20.08
2022-10-18T13:20:26.518Z,19.83
2022-10-18T13:22:54.813Z,20.38
2022-10-18T13:25:16.745Z,21.58
2022-10-18T13:27:45.130Z,14.25
2022-10-18T13:30:50.441Z,16.60
2022-10-18T13:33:27.883Z,14.10
2022-10-18T13:35:45.873Z,13.32
2022-10-18T13:37:59.758Z,14.93
2022-10-18T13:40:24.159Z,14.68
2022-10-18T13:42:32.017Z,14.18
2022-10-18T13:44:37.917Z,15.07
2022-10-18T13:46:39.972Z,12.25
2022-10-18T13:48:51.633Z,13.93
2022-10-18T13:50:53.791Z,18.40
2022-10-18T13:53:07.730Z,18.05
2022-10-18T13:55:33.608Z,14.07
2022-10-18T13:58:03.059Z,15.60
2022-10-18T14:00:58.224Z,14.90
2022-10-18T14:03:56.326Z,17.38
2022-10-18T14:06:06.144Z,18.85
2022-10-18T14:08:28.353Z,17.83
2022-10-18T14:11:05.420Z,14.13
2022-10-18T14:13:07.549Z,16.63
2022-10-18T14:15:30.192Z,25.02
2022-10-18T14:17:42.818Z,20.75
2022-10-18T14:20:01.668Z,17.48
2022-10-18T14:22:32.498Z,19.45
2022-10-18T14:24:34.806Z,18.50
2022-10-18T14:26:36.933Z,20.20
2022-10-18T14:28:58.426Z,17.85
2022-10-18T14:31:06.603Z,16.27
2022-10-18T14:33:33.598Z,20.38
2022-10-18T14:35:35.936Z,16.30
2022-10-18T14:37:38.023Z,18.67
2022-10-18T14:39:40.130Z,18.15
2022-10-18T14:41:55.810Z,14.93
2022-10-18T14:44:15.732Z,17.45
2022-10-18T14:46:28.970Z,18.88
2022-10-18T14:48:33.279Z,16.75
2022-10-18T14:50:35.422Z,19.63
2022-10-18T14:52:37.515Z,20.77
2022-10-18T14:54:39.615Z,19.88
2022-10-18T14:56:41.914Z,22.05
2022-10-18T14:58:44.011Z,20.23
2022-10-18T15:00:48.456Z,21.55
2022-10-18T15:02:50.954Z,18.92
2022-10-18T15:05:05.215Z,21.17
2022-10-18T15:07:08.045Z,19.13
2022-10-18T15:09:10.217Z,18.75
2022-10-18T15:11:14.487Z,21.40
2022-10-18T15:13:17.360Z,17.52
2022-10-18T15:17:32.443Z,22.58
2022-10-18T15:19:39.548Z,22.70
2022-10-18T15:24:26.662Z,21.00
2022-10-18T15:26:29.663Z,20.05
2022-10-18T15:28:50.257Z,22.50
2022-10-18T15:30:52.390Z,21.75
2022-10-18T15:33:02.073Z,21.85
2022-10-18T15:35:22.131Z,21.75
2022-10-18T15:37:38.493Z,20.20
2022-10-18T15:39:40.634Z,22.85
2022-10-18T15:41:58.594Z,22.85
2022-10-18T15:44:21.145Z,21.58
2022-10-18T15:46:32.533Z,22.15
2022-10-18T15:48:41.523Z,21.65
2022-10-18T15:50:49.761Z,23.48
2022-10-18T15:52:51.883Z,24.55
2022-10-18T15:54:54.026Z,21.45
2022-10-18T15:56:56.393Z,24.63
2022-10-18T15:59:00.882Z,23.83
2022-10-18T16:01:04.443Z,24.30
2022-10-18T16:03:09.331Z,23.73
2022-10-18T16:05:18.355Z,25.65
2022-10-18T16:07:20.485Z,25.48
2022-10-18T16:09:24.272Z,26.30
2022-10-18T16:11:26.506Z,38.17
2022-10-18T16:13:28.759Z,30.75
2022-10-18T16:15:30.839Z,30.27
2022-10-18T16:17:33.241Z,24.10
2022-10-18T16:19:35.545Z,23.17
2022-10-18T16:21:38.764Z,26.85
2022-10-18T16:23:59.703Z,23.02
2022-10-18T16:26:22.551Z,29.90
2022-10-18T16:28:45.141Z,26.63
2022-10-18T16:31:07.906Z,26.55
2022-10-18T16:33:30.993Z,25.90
2022-10-18T16:35:53.687Z,30.20
2022-10-18T16:38:34.156Z,27.33
2022-10-18T16:40:57.584Z,25.63
2022-10-18T16:43:20.042Z,27.08
2022-10-18T16:45:42.411Z,26.27
2022-10-18T16:48:05.475Z,28.00
2022-10-18T16:50:29.061Z,28.05
2022-10-18T16:52:53.205Z,24.70
2022-10-18T16:55:21.170Z,22.57
2022-10-18T16:57:43.851Z,31.00
2022-10-18T17:00:07.008Z,55.58
2022-10-18T17:02:29.472Z,48.45
2022-10-18T17:04:51.924Z,35.80
2022-10-18T17:07:23.552Z,26.70
2022-10-18T17:09:56.560Z,25.98
2022-10-18T17:12:18.965Z,26.55
2022-10-18T17:14:41.376Z,26.87
2022-10-18T17:17:03.749Z,28.03
2022-10-18T17:19:26.108Z,26.02
2022-10-18T17:21:56.841Z,27.53
2022-10-18T17:24:22.543Z,27.88
2022-10-18T17:26:44.958Z,25.47
2022-10-18T17:29:08.362Z,29.27
2022-10-18T17:31:31.138Z,25.88
2022-10-18T17:33:55.378Z,26.33
2022-10-18T17:36:17.874Z,28.20
2022-10-18T17:38:40.330Z,29.30
2022-10-18T17:41:11.973Z,26.90
2022-10-18T17:43:34.471Z,31.90
2022-10-18T17:45:57.115Z,28.08
2022-10-18T17:48:19.577Z,29.15
2022-10-18T17:50:42.118Z,28.90
2022-10-18T17:53:04.479Z,24.67
2022-10-18T17:55:27.623Z,29.27
2022-10-18T17:57:50.036Z,31.25
2022-10-18T18:00:13.083Z,29.33
2022-10-18T18:02:38.197Z,27.60
2022-10-18T18:05:02.525Z,26.10
2022-10-18T18:07:25.003Z,29.02
2022-10-18T18:09:45.677Z,32.10
2022-10-18T18:12:06.338Z,31.52
2022-10-18T18:14:28.716Z,26.52
2022-10-18T18:16:51.360Z,29.30
2022-10-18T18:19:14.187Z,26.92
2022-10-18T18:21:36.668Z,35.53
2022-10-18T18:23:59.100Z,34.53
2022-10-18T18:26:22.057Z,28.30
2022-10-18T18:28:44.652Z,30.80
2022-10-18T18:31:07.979Z,29.48
2022-10-18T18:35:57.222Z,25.98
2022-10-18T18:38:19.637Z,32.65
2022-10-18T18:40:42.034Z,32.77
2022-10-18T18:43:18.978Z,26.47
2022-10-18T18:45:52.070Z,27.40
2022-10-18T18:48:18.971Z,28.50
2022-10-18T18:50:50.088Z,28.48
2022-10-18T18:53:12.436Z,30.00
2022-10-18T18:55:39.742Z,22.47
2022-10-18T18:58:02.086Z,31.55
2022-10-18T19:00:24.778Z,27.37
2022-10-18T19:02:47.150Z,28.55
2022-10-18T19:05:09.743Z,27.27
2022-10-18T19:07:32.516Z,30.67
2022-10-18T19:09:55.138Z,24.08
2022-10-18T19:12:20.520Z,27.07
2022-10-18T19:14:43.894Z,25.92
2022-10-18T19:17:07.950Z,28.95
2022-10-18T19:19:30.923Z,27.27
2022-10-18T19:22:00.630Z,27.17
2022-10-18T19:24:24.328Z,29.92
2022-10-18T19:26:58.399Z,26.63
2022-10-18T19:29:25.521Z,30.25
2022-10-18T19:31:48.153Z,28.52
2022-10-18T19:34:12.381Z,27.30
2022-10-18T19:36:35.108Z,31.50
2022-10-18T19:38:57.937Z,25.67
2022-10-18T19:41:20.400Z,26.77
2022-10-18T19:43:42.836Z,25.35
2022-10-18T19:46:05.541Z,25.03
2022-10-18T19:48:27.924Z,21.73
2022-10-18T19:50:50.883Z,24.13
2022-10-18T19:53:13.242Z,21.30
2022-10-18T19:55:35.652Z,29.30
2022-10-18T19:57:57.987Z,20.23
2022-10-18T20:00:20.479Z,19.40
2022-10-18T20:02:42.854Z,18.88
2022-10-18T20:05:05.792Z,19.53
2022-10-18T20:07:28.199Z,21.40
2022-10-18T20:09:50.684Z,22.47
2022-10-18T20:12:13.054Z,24.35
2022-10-18T20:14:35.442Z,24.83
2022-10-18T20:16:57.895Z,24.93
2022-10-18T20:19:20.236Z,19.67
2022-10-18T20:21:42.643Z,18.23
2022-10-18T20:24:05.710Z,28.20
2022-10-18T20:28:58.533Z,19.25
2022-10-18T20:31:21.105Z,21.25
2022-10-18T20:33:43.890Z,24.97
2022-10-18T20:36:11.692Z,19.00
2022-10-18T20:38:35.921Z,25.35
2022-10-18T20:41:18.279Z,18.90
2022-10-18T20:43:40.782Z,18.48
2022-10-18T20:46:03.513Z,22.38
2022-10-18T20:48:26.939Z,18.15
2022-10-18T20:50:49.402Z,20.73
2022-10-18T20:53:11.735Z,19.73
2022-10-18T20:55:34.127Z,18.97
2022-10-18T20:57:56.499Z,18.67
2022-10-18T21:00:19.007Z,23.43
2022-10-18T21:02:41.403Z,19.17
2022-10-18T21:05:04.550Z,20.70
2022-10-18T21:07:26.854Z,20.20
2022-10-18T21:09:49.370Z,15.53
2022-10-18T21:14:39.142Z,11.95
2022-10-18T21:17:01.552Z,17.00
2022-10-18T21:19:26.075Z,24.67
2022-10-18T21:21:51.023Z,19.38
2022-10-18T21:24:13.993Z,20.50
2022-10-18T21:26:36.517Z,20.25
2022-10-18T21:28:59.445Z,19.00
2022-10-18T21:31:24.054Z,20.85
2022-10-18T21:33:46.681Z,24.15
2022-10-18T21:36:09.352Z,24.20
2022-10-18T21:38:31.787Z,22.20
2022-10-18T21:40:54.304Z,18.23
2022-10-18T21:43:16.818Z,23.25
2022-10-18T21:45:39.164Z,19.80
2022-10-18T21:48:02.832Z,24.43
2022-10-18T21:50:25.349Z,22.63
2022-10-18T21:52:48.514Z,16.83
2022-10-18T21:55:10.974Z,20.10
2022-10-18T22:00:02.112Z,19.48
2022-10-18T22:02:24.504Z,15.20
2022-10-18T22:04:47.174Z,16.77
2022-10-18T22:07:09.576Z,21.80
2022-10-18T22:09:32.332Z,15.50
2022-10-18T22:11:54.807Z,17.58
2022-10-18T22:14:17.214Z,17.43
2022-10-18T22:16:39.567Z,18.73
2022-10-18T22:19:02.791Z,17.03
2022-10-18T22:21:25.250Z,19.20
2022-10-18T22:23:50.287Z,17.90
2022-10-18T22:26:21.974Z,14.93
2022-10-18T22:28:44.785Z,17.35
2022-10-18T22:31:13.763Z,21.92
2022-10-18T22:38:21.838Z,18.83
2022-10-18T22:40:44.574Z,18.87
2022-10-18T22:43:06.902Z,16.35
2022-10-18T22:45:29.253Z,14.73
2022-10-18T22:47:51.623Z,17.63
2022-10-18T22:50:14.250Z,22.93
2022-10-18T22:52:36.753Z,17.85
2022-10-18T22:54:59.302Z,13.60
2022-10-18T22:57:21.830Z,15.70
2022-10-18T22:59:44.267Z,17.58
2022-10-18T23:02:06.827Z,21.27
2022-10-18T23:04:29.481Z,16.33
2022-10-18T23:06:51.854Z,14.38
2022-10-18T23:09:14.325Z,20.30
2022-10-18T23:11:36.966Z,20.53
2022-10-18T23:13:59.438Z,17.20
2022-10-18T23:16:22.014Z,23.43
2022-10-18T23:18:44.464Z,16.75
2022-10-18T23:21:09.619Z,19.20
2022-10-18T23:23:35.474Z,20.88
2022-10-18T23:25:57.878Z,29.80
2022-10-18T23:28:20.297Z,18.87
2022-10-18T23:30:42.967Z,15.25
2022-10-18T23:33:05.325Z,18.33
2022-10-18T23:35:28.898Z,22.65
2022-10-18T23:37:52.035Z,16.80
2022-10-18T23:40:14.531Z,16.35
2022-10-18T23:42:37.064Z,18.63
2022-10-18T23:44:59.486Z,18.00
2022-10-18T23:47:21.910Z,16.67
2022-10-18T23:49:44.390Z,19.10
2022-10-18T23:52:07.382Z,24.90
2022-10-18T23:54:29.798Z,13.55
2022-10-18T23:56:52.196Z,16.27
2022-10-18T23:59:14.632Z,15.00
